Home > Products > Valid Products > TAF

000
FTUS44 KHUN 231120
TAFMSL
TAF
KMSL 231120Z 2312/2412 VRB02KT P6SM SKC
     FM231500 08008KT P6SM SKC
     FM240000 09004KT P6SM SKC=



000
FTUS44 KHUN 231120
TAFHSV
TAF
KHSV 231120Z 2312/2412 03004KT P6SM SKC
     FM231700 07009KT P6SM FEW050
     FM240100 08005KT P6SM SKC=



000
FTUS44 KHUN 231120
TAFMSL
TAF
KMSL 231120Z 2312/2412 VRB02KT P6SM SKC
     FM231500 08008KT P6SM SKC
     FM240000 09004KT P6SM SKC=



000
FTUS44 KHUN 231120
TAFHSV
TAF
KHSV 231120Z 2312/2412 03004KT P6SM SKC
     FM231700 07009KT P6SM FEW050
     FM240100 08005KT P6SM SKC=



000
FTUS44 KHUN 230520
TAFMSL
TAF
KMSL 230520Z 2306/2406 VRB03KT P6SM SKC
     FM231500 08010KT P6SM SKC
     FM240000 08005KT P6SM SKC=



000
FTUS44 KHUN 230520
TAFHSV
TAF
KHSV 230520Z 2306/2406 VRB03KT P6SM SKC
     FM231500 07010KT P6SM SKC
     FM240000 07005KT P6SM SKC=



000
FTUS44 KHUN 230520
TAFMSL
TAF
KMSL 230520Z 2306/2406 VRB03KT P6SM SKC
     FM231500 08010KT P6SM SKC
     FM240000 08005KT P6SM SKC=



000
FTUS44 KHUN 230520
TAFHSV
TAF
KHSV 230520Z 2306/2406 VRB03KT P6SM SKC
     FM231500 07010KT P6SM SKC
     FM240000 07005KT P6SM SKC=



000
FTUS44 KHUN 222320
TAFHSV
TAF
KHSV 222320Z 2300/2324 VRB03KT P6SM SKC
     FM231500 07010KT P6SM SKC=



000
FTUS44 KHUN 222320
TAFMSL
TAF
KMSL 222320Z 2300/2324 VRB03KT P6SM SKC
     FM231500 08010KT P6SM SKC=



000
FTUS44 KHUN 222320
TAFMSL
TAF
KMSL 222320Z 2300/2324 VRB03KT P6SM SKC
     FM231500 08010KT P6SM SKC=



000
FTUS44 KHUN 222320
TAFHSV
TAF
KHSV 222320Z 2300/2324 VRB03KT P6SM SKC
     FM231500 07010KT P6SM SKC=



000
FTUS44 KHUN 221720
TAFHSV
TAF
KHSV 221720Z 2218/2318 02010G15KT P6SM SKC
     FM230000 VRB05KT P6SM SKC=



000
FTUS44 KHUN 221720
TAFMSL
TAF
KMSL 221720Z 2218/2318 02009G14KT P6SM SKC
     FM230000 VRB04KT P6SM SKC=



000
FTUS44 KHUN 221720
TAFMSL
TAF
KMSL 221720Z 2218/2318 02009G14KT P6SM SKC
     FM230000 VRB04KT P6SM SKC=



000
FTUS44 KHUN 221140
TAFMSL
TAF
KMSL 221140Z 2212/2312 35006KT P6SM SKC
     FM221500 02010G18KT P6SM SKC
     FM230000 04004KT P6SM SKC=



000
FTUS44 KHUN 221140
TAFHSV
TAF
KHSV 221140Z 2212/2312 35006KT P6SM SKC
     FM221500 02010G18KT P6SM SKC
     FM230000 04004KT P6SM SKC=



000
FTUS44 KHUN 220540
TAFMSL
TAF
KMSL 220540Z 2206/2306 01007KT P6SM SCT050
     FM221400 02010G15KT P6SM SKC
     FM230000 36005KT P6SM SKC=



000
FTUS44 KHUN 220540
TAFHSV
TAF
KHSV 220540Z 2206/2306 01007KT P6SM SCT050
     FM221400 01010G16KT P6SM SKC
     FM230000 36006KT P6SM SKC=



000
FTUS44 KHUN 220540
TAFMSL
TAF
KMSL 220540Z 2206/2306 01007KT P6SM SCT050
     FM221400 02010G15KT P6SM SKC
     FM230000 36005KT P6SM SKC=



000
FTUS44 KHUN 220540
TAFHSV
TAF
KHSV 220540Z 2206/2306 01007KT P6SM SCT050
     FM221400 01010G16KT P6SM SKC
     FM230000 36006KT P6SM SKC=



000
FTUS44 KHUN 212333
TAFMSL
TAF
KMSL 212333Z 2200/2224 30008KT P6SM FEW040 SCT200
     FM220200 35006KT P6SM SKC
     FM221400 02010G15KT P6SM SKC=



000
FTUS44 KHUN 212333
TAFHSV
TAF
KHSV 212333Z 2200/2224 29009KT P6SM VCSH SCT030 BKN050
     FM220100 30007KT P6SM FEW050 SCT200
     FM220300 35006KT P6SM SKC
     FM221400 01010G16KT P6SM SKC=



000
FTUS44 KHUN 212333
TAFMSL
TAF
KMSL 212333Z 2200/2224 30008KT P6SM FEW040 SCT200
     FM220200 35006KT P6SM SKC
     FM221400 02010G15KT P6SM SKC=



000
FTUS44 KHUN 212333
TAFHSV
TAF
KHSV 212333Z 2200/2224 29009KT P6SM VCSH SCT030 BKN050
     FM220100 30007KT P6SM FEW050 SCT200
     FM220300 35006KT P6SM SKC
     FM221400 01010G16KT P6SM SKC=



000
FTUS44 KHUN 211720
TAFHSV
TAF
KHSV 211720Z 2118/2218 26010G15KT P6SM SCT050
     FM212100 29009G14KT P6SM VCSH SCT040 BKN120
     FM220200 34007KT P6SM SCT070 SCT250
     FM221400 01012KT P6SM SCT250=



000
FTUS44 KHUN 211720
TAFMSL
TAF
KMSL 211720Z 2118/2218 27010G15KT P6SM SCT040
     FM212000 30008G13KT P6SM VCSH SCT035 BKN090
     FM220100 35005KT P6SM SCT050 SCT250
     FM221400 02010KT P6SM SKC=



000
FTUS44 KHUN 211720
TAFHSV
TAF
KHSV 211720Z 2118/2218 26010G15KT P6SM SCT050
     FM212100 29009G14KT P6SM VCSH SCT040 BKN120
     FM220200 34007KT P6SM SCT070 SCT250
     FM221400 01012KT P6SM SCT250=



000
FTUS44 KHUN 211720
TAFMSL
TAF
KMSL 211720Z 2118/2218 27010G15KT P6SM SCT040
     FM212000 30008G13KT P6SM VCSH SCT035 BKN090
     FM220100 35005KT P6SM SCT050 SCT250
     FM221400 02010KT P6SM SKC=



000
FTUS44 KHUN 211137
TAFHSV
TAF
KHSV 211137Z 2112/2212 00000KT P6SM SKC
     FM211500 26009G18KT P6SM SCT040
     FM211900 27008G17KT P6SM VCTS OVC040CB
     FM220100 31010KT P6SM BKN040
     FM220700 36012KT P6SM SCT050=



000
FTUS44 KHUN 211137
TAFMSL
TAF
KMSL 211137Z 2112/2212 00000KT P6SM SKC
     FM211500 26010G18KT P6SM SCT040
     FM211900 27010G18KT P6SM VCTS OVC040CB
     FM220000 32009G17KT P6SM BKN040
     FM220700 36012KT P6SM SKC=



000
FTUS44 KHUN 211137
TAFHSV
TAF
KHSV 211137Z 2112/2212 00000KT P6SM SKC
     FM211500 26009G18KT P6SM SCT040
     FM211900 27008G17KT P6SM VCTS OVC040CB
     FM220100 31010KT P6SM BKN040
     FM220700 36012KT P6SM SCT050=



000
FTUS44 KHUN 211137
TAFMSL
TAF
KMSL 211137Z 2112/2212 00000KT P6SM SKC
     FM211500 26010G18KT P6SM SCT040
     FM211900 27010G18KT P6SM VCTS OVC040CB
     FM220000 32009G17KT P6SM BKN040
     FM220700 36012KT P6SM SKC=



000
FTUS44 KHUN 210521
TAFHSV
TAF
KHSV 210521Z 2106/2206 12004KT P6SM SCT250
      TEMPO 2110/2112 5SM BR
     FM211500 27010KT P6SM SCT120 BKN250
     FM220100 32005KT P6SM SCT070=



000
FTUS44 KHUN 210521
TAFMSL
TAF
KMSL 210521Z 2106/2206 VRB03KT P6SM SCT250
      TEMPO 2110/2113 5SM BR
     FM211500 28009KT P6SM SCT090 BKN250
     FM220100 31006KT P6SM SCT070=



000
FTUS44 KHUN 210521
TAFHSV
TAF
KHSV 210521Z 2106/2206 12004KT P6SM SCT250
      TEMPO 2110/2112 5SM BR
     FM211500 27010KT P6SM SCT120 BKN250
     FM220100 32005KT P6SM SCT070=



000
FTUS44 KHUN 210521
TAFMSL
TAF
KMSL 210521Z 2106/2206 VRB03KT P6SM SCT250
      TEMPO 2110/2113 5SM BR
     FM211500 28009KT P6SM SCT090 BKN250
     FM220100 31006KT P6SM SCT070=



000
FTUS44 KHUN 202330
TAFMSL
TAF
KMSL 202330Z 2100/2124 VRB03KT P6SM SCT250
      TEMPO 2110/2113 4SM BR
     FM211500 28009KT P6SM SCT090 BKN250=



000
FTUS44 KHUN 202330
TAFHSV
TAF
KHSV 202330Z 2100/2124 12004KT P6SM SCT250
      TEMPO 2110/2112 5SM BR
     FM211500 27010KT P6SM SCT120 BKN250=



000
FTUS44 KHUN 201720
TAFMSL
TAF
KMSL 201720Z 2018/2118 14005KT P6SM SCT050
     FM210000 VRB03KT P6SM SCT250=



000
FTUS44 KHUN 201720
TAFHSV
TAF
KHSV 201720Z 2018/2118 14007KT P6SM SCT040
     FM210000 VRB04KT P6SM SCT250=



000
FTUS44 KHUN 201720
TAFMSL
TAF
KMSL 201720Z 2018/2118 14005KT P6SM SCT050
     FM210000 VRB03KT P6SM SCT250=



000
FTUS44 KHUN 201720
TAFHSV
TAF
KHSV 201720Z 2018/2118 14007KT P6SM SCT040
     FM210000 VRB04KT P6SM SCT250=



    US Dept of Commerce
    National Oceanic and Atmospheric Administration
    National Weather Service
    1325 East West Highway
    Silver Spring, MD 20910
    Page Author: NWS Internet Services Team
Disclaimer
Information Quality
Credits
Glossary
Privacy Policy
Freedom of Information Act (FOIA)
About Us
Career Opportunities